Time;durP1;ratioP1;P1;durP2;ratioP2;P2;SDS_P1;SDS_P2;PMS_P1;PMS_P2;Temp;Humidity;BMP_temperature;BMP_pressure;BME280_temperature;BME280_humidity;BME280_pressure;Samples;Min_cycle;Max_cycle;Signal;HPM_P1;HPM_P2
2022/04/01 00:00:08;;;;;;;0.00;0.00;;;;;;;5.86;45.26;101650.69;7359464;19;20014;-57
2022/04/01 00:02:34;;;;;;;0.03;0.03;;;;;;;5.81;45.85;101644.59;7356313;19;20007;-57
2022/04/01 00:04:59;;;;;;;0.00;0.00;;;;;;;5.76;45.50;101646.25;7359805;19;20021;-58
2022/04/01 00:07:24;;;;;;;0.00;0.00;;;;;;;5.75;45.81;101659.22;7355059;19;20641;-58
2022/04/01 00:09:50;;;;;;;0.00;0.00;;;;;;;5.69;45.82;101647.06;7359256;19;20010;-56
2022/04/01 00:12:15;;;;;;;0.00;0.00;;;;;;;5.67;45.99;101651.31;7353907;19;20367;-57
2022/04/01 00:14:41;;;;;;;0.00;0.00;;;;;;;5.62;46.03;101653.00;7358499;19;20014;-57
2022/04/01 00:17:06;;;;;;;0.00;0.00;;;;;;;5.61;46.01;101656.44;7358768;19;20014;-58
2022/04/01 00:19:32;;;;;;;0.00;0.00;;;;;;;5.60;46.33;101657.28;7360079;19;20012;-57
2022/04/01 00:21:58;;;;;;;0.00;0.00;;;;;;;5.44;46.40;101632.91;7360644;19;20702;-55
2022/04/01 00:24:24;;;;;;;0.00;0.00;;;;;;;5.42;46.80;101640.66;7359684;19;20010;-58
2022/04/01 00:26:50;;;;;;;0.00;0.00;;;;;;;5.43;46.87;101642.41;7356632;19;20055;-56
2022/04/01 00:29:15;;;;;;;0.00;0.00;;;;;;;5.50;46.46;101658.88;7361763;19;20267;-57
2022/04/01 00:31:45;;;;;;;0.00;0.00;;;;;;;5.39;46.96;101650.13;7356524;19;20106;-58
2022/04/01 00:34:17;;;;;;;0.10;0.10;;;;;;;5.45;46.70;101658.81;7361414;19;20509;-57
2022/04/01 00:36:45;;;;;;;0.00;0.00;;;;;;;5.44;46.86;101649.31;7356678;19;20034;-56
2022/04/01 00:39:12;;;;;;;0.00;0.00;;;;;;;5.42;45.53;101656.22;7351120;19;20013;-56
2022/04/01 00:41:38;;;;;;;0.00;0.00;;;;;;;5.38;46.94;101651.84;7350904;19;20013;-57
2022/04/01 00:44:16;;;;;;;0.00;0.00;;;;;;;5.27;46.00;101637.88;7355280;19;20022;-56
2022/04/01 00:46:42;;;;;;;;;;;;;;;5.35;42.34;101658.69;7358413;19;21176;-58
2022/04/01 00:49:07;;;;;;;0.00;0.00;;;;;;;5.24;46.18;101647.31;7354263;19;19947;-57
2022/04/01 00:51:33;;;;;;;0.03;0.03;;;;;;;5.16;47.15;101636.81;7360742;19;20019;-56
2022/04/01 00:53:58;;;;;;;0.00;0.00;;;;;;;5.22;46.71;101652.47;7355758;19;20018;-56
2022/04/01 00:56:30;;;;;;;0.00;0.00;;;;;;;5.15;46.98;101650.63;7361410;19;20013;-56
2022/04/01 00:58:57;;;;;;;0.00;0.00;;;;;;;5.01;46.96;101629.69;7354073;19;20732;-57
2022/04/01 01:01:22;;;;;;;0.00;0.00;;;;;;;4.97;47.28;101620.16;7360206;19;22473;-57
2022/04/01 01:03:49;;;;;;;0.00;0.00;;;;;;;4.94;47.42;101631.34;7357316;19;20017;-56
2022/04/01 01:06:16;;;;;;;0.00;0.00;;;;;;;5.05;47.18;101648.75;7357325;19;20717;-57
2022/04/01 01:08:42;;;;;;;0.00;0.00;;;;;;;5.02;47.37;101644.41;7355892;19;20006;-56
2022/04/01 01:11:08;;;;;;;0.00;0.00;;;;;;;4.97;48.10;101642.56;7351870;19;20013;-56
2022/04/01 01:13:34;;;;;;;0.00;0.00;;;;;;;4.97;47.59;101647.75;7359293;19;20010;-57
2022/04/01 01:15:59;;;;;;;0.00;0.00;;;;;;;4.94;47.65;101646.00;7356003;19;20002;-58
2022/04/01 01:18:25;;;;;;;0.00;0.00;;;;;;;4.89;47.67;101638.16;7360677;19;20111;-56
2022/04/01 01:20:51;;;;;;;0.03;0.03;;;;;;;4.86;48.05;101645.84;7338813;19;21263;-57
2022/04/01 01:23:16;;;;;;;0.00;0.00;;;;;;;4.91;48.55;101656.28;7353329;19;20003;-57
2022/04/01 01:25:42;;;;;;;0.00;0.00;;;;;;;4.85;48.35;101648.44;7353081;19;20023;-56
2022/04/01 01:28:08;;;;;;;0.00;0.00;;;;;;;4.87;48.06;101654.53;7354625;19;20003;-58
2022/04/01 01:30:33;;;;;;;0.00;0.00;;;;;;;4.71;48.25;101631.81;7358973;19;20028;-56
2022/04/01 01:33:01;;;;;;;0.00;0.00;;;;;;;4.73;47.99;101641.34;7355062;19;20717;-57
2022/04/01 01:35:28;;;;;;;0.00;0.00;;;;;;;4.83;47.97;101658.78;7347501;19;21286;-57
2022/04/01 01:37:54;;;;;;;0.00;0.00;;;;;;;4.81;48.53;101655.28;7352291;19;20024;-56
2022/04/01 01:40:20;;;;;;;0.00;0.00;;;;;;;4.55;48.67;101615.16;7357682;19;20094;-57
2022/04/01 01:42:46;;;;;;;0.00;0.00;;;;;;;4.65;48.67;101642.94;7347385;19;20030;-57
2022/04/01 01:45:11;;;;;;;0.00;0.00;;;;;;;4.65;48.62;101642.94;7357170;19;20848;-57
2022/04/01 01:47:37;;;;;;;0.00;0.00;;;;;;;4.69;48.34;101650.78;7358619;19;20022;-58
2022/04/01 01:55:31;;;;;;;0.00;0.00;;;;;;;4.63;48.49;101654.97;7360986;19;20062;-58
2022/04/01 01:57:57;;;;;;;0.00;0.00;;;;;;;4.64;48.54;101661.91;7349250;19;20932;-56
2022/04/01 02:00:22;;;;;;;0.00;0.00;;;;;;;4.61;48.61;101661.81;7360879;19;20006;-57
2022/04/01 02:02:49;;;;;;;0.00;0.00;;;;;;;4.53;48.60;101647.91;7363721;19;20016;-57
2022/04/01 02:05:16;;;;;;;0.00;0.00;;;;;;;4.56;49.13;101664.38;7360684;19;20585;-58
2022/04/01 02:07:47;;;;;;;0.00;0.00;;;;;;;4.53;48.83;101668.59;7359889;19;20006;-57
2022/04/01 02:10:12;;;;;;;0.00;0.00;;;;;;;4.51;48.70;101665.09;7362677;19;20022;-57
2022/04/01 02:12:38;;;;;;;0.00;0.00;;;;;;;4.44;49.15;101664.13;7359287;19;20009;-58
2022/04/01 02:15:05;;;;;;;0.10;0.10;;;;;;;4.09;49.13;101609.19;7356857;19;20014;-59
2022/04/01 02:17:31;;;;;;;0.00;0.00;;;;;;;4.41;49.24;101675.31;7361275;19;20043;-58
2022/04/01 02:19:56;;;;;;;0.00;0.00;;;;;;;4.41;49.06;101675.31;7360713;19;20010;-58
2022/04/01 02:22:22;;;;;;;0.00;0.00;;;;;;;4.29;49.20;101661.28;7350984;19;20014;-56
2022/04/01 02:24:50;;;;;;;0.00;0.00;;;;;;;4.18;49.34;101640.38;7360861;19;20011;-56
2022/04/01 02:27:17;;;;;;;0.00;0.00;;;;;;;4.19;49.82;101657.63;7359533;19;20006;-58
2022/04/01 02:29:43;;;;;;;0.00;0.00;;;;;;;4.26;49.05;101667.28;7357904;19;20073;-57
2022/04/01 02:32:08;;;;;;;0.00;0.00;;;;;;;4.18;49.74;101663.66;7362038;19;20472;-57
2022/04/01 02:34:34;;;;;;;0.00;0.00;;;;;;;4.22;49.62;101670.63;7363315;19;20022;-57
2022/04/01 02:37:04;;;;;;;0.00;0.00;;;;;;;4.23;49.65;101685.28;7357234;19;20015;-57
2022/04/01 02:39:30;;;;;;;0.10;0.10;;;;;;;4.17;50.03;101690.34;7353193;19;20018;-57
2022/04/01 02:41:55;;;;;;;0.00;0.00;;;;;;;4.04;50.06;101663.38;7361287;19;20025;-58
2022/04/01 02:44:21;;;;;;;0.00;0.00;;;;;;;4.11;49.93;101685.06;7360183;19;20094;-55
2022/04/01 02:46:47;;;;;;;0.08;0.08;;;;;;;3.87;49.77;101644.09;7355239;19;20007;-56
2022/04/01 02:49:15;;;;;;;0.00;0.00;;;;;;;3.75;50.01;101629.25;7347674;19;20006;-57
2022/04/01 02:51:43;;;;;;;0.00;0.00;;;;;;;3.94;50.20;101668.34;7353289;19;20022;-56
2022/04/01 02:54:10;;;;;;;0.10;0.10;;;;;;;4.07;50.14;101693.59;7359698;19;20022;-57
2022/04/01 02:56:37;;;;;;;0.00;0.00;;;;;;;4.03;49.74;101681.47;7359048;19;20010;-55
2022/04/01 02:59:07;;;;;;;0.00;0.00;;;;;;;3.90;50.05;101670.88;7353491;19;20061;-58
2022/04/01 03:01:33;;;;;;;0.00;0.00;;;;;;;3.98;50.10;101688.25;7363001;19;20010;-57
2022/04/01 03:03:59;;;;;;;0.00;0.00;;;;;;;3.82;50.13;101667.25;7359175;19;20089;-57
2022/04/01 03:06:24;;;;;;;0.00;0.00;;;;;;;3.95;50.29;101689.03;7348347;19;20012;-57
2022/04/01 03:08:50;;;;;;;0.00;0.00;;;;;;;3.85;50.27;101677.69;7359267;19;20002;-56
2022/04/01 03:11:16;;;;;;;0.10;0.10;;;;;;;3.88;50.80;101682.88;7350884;19;20007;-56
2022/04/01 03:13:41;;;;;;;0.00;0.00;;;;;;;3.76;50.65;101667.16;7361256;19;20026;-57
2022/04/01 03:16:07;;;;;;;0.00;0.00;;;;;;;3.89;50.83;101688.91;7360246;19;20014;-57
2022/04/01 03:18:32;;;;;;;0.00;0.00;;;;;;;3.84;50.84;101686.25;7356042;19;20356;-57
2022/04/01 03:20:58;;;;;;;0.00;0.00;;;;;;;3.86;50.75;101689.75;7364122;19;20006;-58
2022/04/01 03:23:23;;;;;;;0.00;0.00;;;;;;;3.86;50.35;101701.81;7359105;19;20014;-57
2022/04/01 03:25:50;;;;;;;0.05;0.05;;;;;;;3.83;50.80;101691.38;7364769;19;20018;-58
2022/04/01 03:28:17;;;;;;;0.00;0.00;;;;;;;3.78;50.43;101682.66;7358394;19;20018;-58
2022/04/01 03:30:42;;;;;;;0.00;0.00;;;;;;;3.78;50.59;101691.28;7358083;19;20006;-57
2022/04/01 03:33:08;;;;;;;0.00;0.00;;;;;;;3.77;51.04;101686.97;7365369;19;20466;-57
2022/04/01 03:35:34;;;;;;;0.10;0.10;;;;;;;3.78;51.00;101686.13;7363046;19;20530;-57
2022/04/01 03:37:59;;;;;;;0.00;0.00;;;;;;;3.71;50.66;101679.09;7354569;19;20097;-58
2022/04/01 03:40:29;;;;;;;0.00;0.00;;;;;;;3.76;50.76;101692.97;7365130;19;20019;-58
2022/04/01 03:42:55;;;;;;;0.00;0.00;;;;;;;3.74;50.95;101689.47;7356958;19;20018;-58
2022/04/01 03:45:22;;;;;;;0.00;0.00;;;;;;;3.73;50.74;101695.47;7364958;19;20026;-57
2022/04/01 03:47:52;;;;;;;0.00;0.00;;;;;;;3.72;50.74;101690.28;7361911;19;20015;-58
2022/04/01 03:50:24;;;;;;;0.00;0.00;;;;;;;3.47;50.38;101656.19;7362402;19;20018;-55
2022/04/01 03:52:53;;;;;;;0.00;0.00;;;;;;;3.62;50.96;101690.09;7364438;19;20081;-56
2022/04/01 03:55:22;;;;;;;0.00;0.00;;;;;;;3.66;50.91;101695.34;7362349;19;20018;-56
2022/04/01 03:57:48;;;;;;;0.00;0.00;;;;;;;3.43;51.33;101669.00;7363189;19;20022;-56
2022/04/01 04:00:14;;;;;;;0.00;0.00;;;;;;;3.56;51.19;101694.25;7352969;19;20015;-56
2022/04/01 04:02:44;;;;;;;0.00;0.00;;;;;;;3.59;51.53;101704.66;7363100;19;20760;-58
2022/04/01 04:05:10;;;;;;;0.00;0.00;;;;;;;3.54;51.39;101701.09;7363841;19;20021;-57
2022/04/01 04:07:36;;;;;;;0.10;0.10;;;;;;;3.56;51.69;101707.19;7360766;19;20077;-58
2022/04/01 04:10:04;;;;;;;0.00;0.00;;;;;;;3.55;51.67;101708.03;7363393;19;20025;-56
2022/04/01 04:12:31;;;;;;;0.00;0.00;;;;;;;3.52;51.76;101707.94;7354781;19;20010;-58
2022/04/01 04:14:57;;;;;;;0.00;0.00;;;;;;;3.51;51.94;101713.94;7362707;19;20546;-56
2022/04/01 04:17:28;;;;;;;0.00;0.00;;;;;;;3.49;51.86;101713.91;7360417;19;20015;-57
2022/04/01 04:20:10;;;;;;;0.10;0.10;;;;;;;3.48;51.82;101716.44;7359529;19;20631;-58
2022/04/01 04:23:16;;;;;;;0.10;0.10;;;;;;;3.48;50.53;101716.44;7364015;19;20011;-55
2022/04/01 04:25:51;;;;;;;0.08;0.08;;;;;;;3.40;51.80;101708.53;7259638;19;2004293;-57
2022/04/01 04:28:25;;;;;;;0.00;0.00;;;;;;;3.44;51.53;101722.38;7361690;19;20027;-56
2022/04/01 04:30:53;;;;;;;0.10;0.10;;;;;;;3.44;52.04;101719.78;7356065;19;20018;-55
2022/04/01 04:33:21;;;;;;;;;;;;;;;3.42;48.55;101719.78;7358211;19;20014;-57
2022/04/01 04:35:49;;;;;;;0.00;0.00;;;;;;;3.33;51.51;101712.69;7362603;19;19994;-57
2022/04/01 04:38:16;;;;;;;0.00;0.00;;;;;;;3.33;52.26;101712.69;7360460;19;20019;-56
2022/04/01 04:40:42;;;;;;;0.00;0.00;;;;;;;2.97;51.97;101658.50;7360665;19;20031;-56
2022/04/01 04:43:10;;;;;;;0.08;0.08;;;;;;;3.32;52.41;101736.75;7357362;19;20014;-58
2022/04/01 04:45:36;;;;;;;0.00;0.00;;;;;;;3.30;52.37;101738.44;7361501;19;20018;-58
2022/04/01 04:48:03;;;;;;;0.00;0.00;;;;;;;3.28;52.65;101736.66;7358663;19;20015;-58
2022/04/01 04:50:29;;;;;;;0.00;0.00;;;;;;;3.26;52.40;101731.44;7356031;19;20018;-58
2022/04/01 04:52:56;;;;;;;0.00;0.00;;;;;;;3.13;52.86;101716.50;7361307;19;20014;-57
2022/04/01 04:55:22;;;;;;;0.08;0.08;;;;;;;3.24;52.79;101739.97;7358862;19;20014;-55
2022/04/01 04:57:50;;;;;;;0.00;0.00;;;;;;;3.20;52.85;101730.44;7356994;19;20036;-57
2022/04/01 05:00:20;;;;;;;0.00;0.00;;;;;;;3.23;52.87;101730.50;7357584;19;20942;-58
2022/04/01 05:03:16;;;;;;;0.00;0.00;;;;;;;3.22;51.87;101745.13;7356762;19;20102;-57
2022/04/01 05:05:45;;;;;;;0.00;0.00;;;;;;;3.16;52.75;101736.38;7248676;19;2004293;-57
2022/04/01 05:08:26;;;;;;;0.00;0.00;;;;;;;3.20;51.90;101743.34;7362046;19;20027;-58
2022/04/01 05:10:59;;;;;;;0.00;0.00;;;;;;;3.05;52.78;101724.06;7357399;19;20081;-60
2022/04/01 05:13:33;;;;;;;0.00;0.00;;;;;;;3.18;53.32;101751.03;7361196;19;20006;-57
2022/04/01 05:16:06;;;;;;;0.00;0.00;;;;;;;3.06;52.18;101735.25;7357521;19;20010;-57
2022/04/01 05:18:53;;;;;;;0.10;0.10;;;;;;;3.15;51.53;101750.09;7362660;19;20010;-55
2022/04/01 05:21:19;;;;;;;0.00;0.00;;;;;;;3.12;52.92;101743.16;7356043;19;20011;-57
2022/04/01 05:24:00;;;;;;;0.00;0.00;;;;;;;3.03;52.88;101740.34;7360675;19;20042;-56
2022/04/01 05:26:42;;;;;;;0.00;0.00;;;;;;;3.18;53.66;101768.22;7359906;19;20509;-57
2022/04/01 05:29:18;;;;;;;0.00;0.00;;;;;;;3.16;53.35;101770.78;7353016;19;20010;-56
2022/04/01 05:31:46;;;;;;;0.00;0.00;;;;;;;3.15;53.50;101774.22;7354582;19;20718;-56
2022/04/01 05:34:41;;;;;;;0.00;0.00;;;;;;;3.11;52.27;101767.22;7361028;19;20030;-59
2022/04/01 05:37:07;;;;;;;0.00;0.00;;;;;;;3.11;53.82;101767.22;7256109;19;2004324;-58
2022/04/01 05:39:35;;;;;;;0.00;0.00;;;;;;;3.15;53.91;101792.28;7358105;19;20098;-57
2022/04/01 05:42:01;;;;;;;0.00;0.00;;;;;;;3.06;53.75;101781.72;7361004;19;20018;-58
2022/04/01 05:44:27;;;;;;;0.00;0.00;;;;;;;3.10;53.85;101780.97;7354509;19;21265;-56
2022/04/01 05:46:53;;;;;;;0.00;0.00;;;;;;;3.11;54.10;101788.72;7358544;19;20035;-56
2022/04/01 05:49:21;;;;;;;0.00;0.00;;;;;;;3.10;53.91;101787.00;7358985;19;20010;-58
2022/04/01 05:51:47;;;;;;;0.00;0.00;;;;;;;3.07;53.70;101791.19;7358634;19;20018;-57
2022/04/01 05:54:15;;;;;;;0.00;0.00;;;;;;;2.99;54.35;101777.22;7361051;19;20018;-57
2022/04/01 05:56:44;;;;;;;0.00;0.00;;;;;;;3.11;54.34;101804.22;7354873;19;20021;-54
2022/04/01 05:59:11;;;;;;;0.00;0.00;;;;;;;2.97;54.14;101778.91;7360856;19;20022;-58
2022/04/01 06:02:01;;;;;;;0.00;0.00;;;;;;;3.10;52.70;101809.34;7355947;19;20031;-57
2022/04/01 06:04:48;;;;;;;0.00;0.00;;;;;;;3.08;53.52;101808.41;7251727;19;2004378;-57
2022/04/01 06:07:36;;;;;;;0.00;0.00;;;;;;;3.08;53.42;101818.75;7350848;19;20010;-55
2022/04/01 06:10:18;;;;;;;0.00;0.00;;;;;;;3.06;53.22;101815.25;7357032;19;20006;-56
2022/04/01 06:13:11;;;;;;;0.00;0.00;;;;;;;3.05;52.67;101834.16;7353640;19;20031;-54
2022/04/01 06:15:42;;;;;;;0.08;0.08;;;;;;;3.03;53.97;101834.09;7254282;19;2004447;-57
2022/04/01 06:18:20;;;;;;;0.10;0.10;;;;;;;3.02;53.21;101834.06;7352149;19;20511;-57
2022/04/01 06:20:48;;;;;;;0.00;0.00;;;;;;;2.96;53.98;101826.19;7356231;19;20006;-57
2022/04/01 06:23:40;;;;;;;0.00;0.00;;;;;;;3.00;54.04;101835.75;7353468;19;20006;-57
2022/04/01 06:26:11;;;;;;;0.03;0.03;;;;;;;2.89;54.07;101821.66;7358449;19;20011;-57
2022/04/01 06:28:49;;;;;;;0.08;0.08;;;;;;;2.84;54.27;101825.03;7357828;19;20017;-57
2022/04/01 06:31:17;;;;;;;0.00;0.00;;;;;;;2.92;54.10;101832.09;7358533;19;20635;-58
2022/04/01 06:33:42;;;;;;;;;;;;;;;2.98;51.10;101842.56;7357321;19;20084;-57
2022/04/01 06:36:13;;;;;;;0.00;0.00;;;;;;;2.93;53.65;101836.41;7357756;19;19990;-57
2022/04/01 06:38:54;;;;;;;0.00;0.00;;;;;;;2.96;53.70;101850.25;7352796;19;20612;-57
2022/04/01 06:41:23;;;;;;;0.00;0.00;;;;;;;2.85;54.45;101831.06;7360483;19;20007;-57
2022/04/01 06:43:49;;;;;;;0.00;0.00;;;;;;;2.93;54.76;101846.72;7352593;19;20017;-58
2022/04/01 06:46:14;;;;;;;0.00;0.00;;;;;;;2.95;54.81;101857.97;7364376;19;20019;-57
2022/04/01 06:48:40;;;;;;;0.00;0.00;;;;;;;2.91;55.12;101845.81;7358774;19;20042;-56
2022/04/01 06:51:08;;;;;;;0.08;0.08;;;;;;;2.86;54.75;101833.66;7364643;19;20018;-56
2022/04/01 06:53:36;;;;;;;0.00;0.00;;;;;;;3.04;54.67;101858.19;7363390;19;20015;-56
2022/04/01 06:56:03;;;;;;;0.00;0.00;;;;;;;2.98;54.79;101837.41;7348759;19;20006;-57
2022/04/01 06:58:30;;;;;;;0.10;0.10;;;;;;;3.02;54.64;101849.56;7360345;19;20023;-57
2022/04/01 07:00:56;;;;;;;0.00;0.00;;;;;;;3.11;54.68;101862.69;7356337;19;20014;-57
2022/04/01 07:03:22;;;;;;;0.03;0.03;;;;;;;3.12;55.04;101856.69;7363924;19;20014;-58
2022/04/01 07:05:48;;;;;;;0.05;0.05;;;;;;;3.22;54.64;101863.84;7356603;19;20024;-57
2022/04/01 07:08:15;;;;;;;0.10;0.10;;;;;;;3.12;54.33;101846.38;7363946;19;20377;-57
2022/04/01 07:10:41;;;;;;;0.10;0.10;;;;;;;3.25;54.76;101865.66;7361062;19;20119;-57
2022/04/01 07:13:06;;;;;;;0.00;0.00;;;;;;;3.31;55.15;101866.69;7362232;19;20066;-56
2022/04/01 07:15:32;;;;;;;0.00;0.00;;;;;;;3.35;54.77;101871.09;7358441;19;20014;-56
2022/04/01 07:17:58;;;;;;;0.00;0.00;;;;;;;3.35;55.39;101868.50;7364051;19;20014;-56
2022/04/01 07:20:24;;;;;;;0.00;0.00;;;;;;;3.38;55.37;101865.97;7360413;19;20030;-57
2022/04/01 07:22:53;;;;;;;0.00;0.00;;;;;;;3.53;55.49;101887.88;7357279;19;20010;-56
2022/04/01 07:25:21;;;;;;;0.00;0.00;;;;;;;3.59;55.18;101882.84;7362410;19;20018;-56
2022/04/01 07:27:46;;;;;;;0.00;0.00;;;;;;;3.51;54.73;101861.16;7359937;19;20050;-56
2022/04/01 07:30:12;;;;;;;0.00;0.00;;;;;;;3.60;55.21;101882.03;7364025;19;20035;-57
2022/04/01 07:32:39;;;;;;;0.00;0.00;;;;;;;3.78;55.08;101903.13;7358829;19;20015;-56
2022/04/01 07:35:09;;;;;;;0.00;0.00;;;;;;;3.86;53.72;101900.75;7356757;19;20014;-58
2022/04/01 07:37:34;;;;;;;0.00;0.00;;;;;;;3.76;54.80;101878.13;7361052;19;20014;-57
2022/04/01 07:40:01;;;;;;;0.10;0.10;;;;;;;3.96;54.81;101901.84;7359812;19;20025;-57
2022/04/01 07:42:28;;;;;;;0.10;0.10;;;;;;;3.98;54.97;101900.16;7359280;19;20018;-56
2022/04/01 07:44:55;;;;;;;0.00;0.00;;;;;;;4.07;55.11;101909.00;7359907;19;20019;-55
2022/04/01 07:47:21;;;;;;;0.00;0.00;;;;;;;4.07;55.46;101896.09;7351633;19;20526;-57
2022/04/01 07:49:48;;;;;;;0.00;0.00;;;;;;;4.19;55.65;101905.81;7361071;19;20604;-57
2022/04/01 07:52:15;;;;;;;0.00;0.00;;;;;;;4.13;55.24;101879.84;7358977;19;20017;-56
2022/04/01 07:54:42;;;;;;;0.00;0.00;;;;;;;4.25;54.87;101890.44;7357726;19;20010;-56
2022/04/01 07:57:09;;;;;;;0.08;0.08;;;;;;;4.40;55.15;101903.69;7359631;19;20006;-57
2022/04/01 07:59:35;;;;;;;0.10;0.10;;;;;;;4.49;55.37;101904.75;7353132;19;20010;-57
2022/04/01 08:02:02;;;;;;;0.00;0.00;;;;;;;4.39;54.60;101875.22;7358219;19;20023;-57
2022/04/01 08:04:28;;;;;;;0.00;0.00;;;;;;;4.58;54.86;101895.47;7350636;19;20013;-57
2022/04/01 08:06:54;;;;;;;0.00;0.00;;;;;;;4.65;54.62;101904.22;7363013;19;20010;-59
2022/04/01 08:09:20;;;;;;;0.00;0.00;;;;;;;4.79;54.58;101918.34;7359813;19;20465;-57
2022/04/01 08:11:46;;;;;;;0.00;0.00;;;;;;;4.84;54.81;101910.66;7353656;19;20033;-58
2022/04/01 08:14:12;;;;;;;0.10;0.10;;;;;;;4.67;54.77;101874.97;7356793;19;20015;-57
2022/04/01 08:16:38;;;;;;;0.10;0.10;;;;;;;5.01;54.98;101916.16;7359142;19;20010;-58
2022/04/01 08:19:03;;;;;;;0.00;0.00;;;;;;;5.09;54.71;101912.03;7360394;19;20006;-57
2022/04/01 08:21:31;;;;;;;0.00;0.00;;;;;;;5.19;54.82;101916.53;7351685;19;20013;-58
2022/04/01 08:23:57;;;;;;;0.00;0.00;;;;;;;5.22;54.95;101916.59;7364147;19;20018;-57
2022/04/01 08:26:23;;;;;;;0.10;0.10;;;;;;;5.33;55.34;101920.25;7361124;19;20573;-56
2022/04/01 08:28:49;;;;;;;0.10;0.10;;;;;;;5.30;55.13;101902.06;7348213;19;20018;-58
2022/04/01 08:31:14;;;;;;;0.10;0.10;;;;;;;5.63;54.72;101925.13;7361535;19;20006;-57
2022/04/01 08:33:40;;;;;;;0.10;0.10;;;;;;;5.81;54.17;101923.66;7361058;19;20036;-56
2022/04/01 08:36:05;;;;;;;0.10;0.10;;;;;;;6.04;53.98;101924.94;7359311;19;20680;-57
2022/04/01 08:38:31;;;;;;;0.05;0.05;;;;;;;6.20;54.01;101907.88;7360382;19;20010;-57
2022/04/01 08:40:56;;;;;;;0.00;0.00;;;;;;;6.55;53.66;101917.91;7360714;19;20014;-58
2022/04/01 08:43:30;;;;;;;0.00;0.00;;;;;;;6.90;53.12;101933.91;7346396;19;20006;-56
2022/04/01 08:45:58;;;;;;;0.00;0.00;;;;;;;7.16;52.74;101931.63;7362976;19;20430;-57
2022/04/01 08:48:24;;;;;;;;;;;;;;;7.52;50.61;101925.94;7360831;19;20030;-56
2022/04/01 08:50:50;;;;;;;0.00;0.00;;;;;;;7.71;51.71;101924.38;7362537;19;20011;-57
2022/04/01 08:53:16;;;;;;;0.00;0.00;;;;;;;7.97;51.63;101920.25;7359822;19;20026;-58
2022/04/01 08:55:51;;;;;;;0.00;0.00;;;;;;;8.35;50.75;101930.03;7357197;19;20048;-58
2022/04/01 08:58:21;;;;;;;0.00;0.00;;;;;;;8.54;50.54;101913.69;7361498;19;20018;-58
2022/04/01 09:00:48;;;;;;;0.00;0.00;;;;;;;8.90;49.97;101929.47;7360147;19;20017;-55
2022/04/01 09:03:15;;;;;;;0.10;0.10;;;;;;;9.18;49.72;101933.06;7361794;19;20022;-55
2022/04/01 09:05:52;;;;;;;0.00;0.00;;;;;;;9.53;49.11;101926.19;7359373;19;20351;-55
2022/04/01 09:08:23;;;;;;;0.00;0.00;;;;;;;9.81;48.73;101934.88;7361420;19;20009;-56
2022/04/01 09:11:01;;;;;;;0.00;0.00;;;;;;;10.04;48.58;101934.03;7346670;19;20010;-56
2022/04/01 09:13:54;;;;;;;0.00;0.00;;;;;;;10.30;48.09;101936.63;7361818;19;20011;-55
2022/04/01 09:16:33;;;;;;;0.08;0.08;;;;;;;10.70;47.33;101931.31;7256345;19;2004306;-54
2022/04/01 09:19:04;;;;;;;0.00;0.00;;;;;;;10.99;46.57;101929.41;7358222;19;20010;-55
2022/04/01 09:21:32;;;;;;;0.00;0.00;;;;;;;11.20;46.41;101932.78;7354683;19;20014;-55
2022/04/01 09:23:58;;;;;;;0.00;0.00;;;;;;;11.44;45.47;101937.88;7359731;19;20018;-55
2022/04/01 09:26:32;;;;;;;0.00;0.00;;;;;;;11.78;46.08;101935.03;7356925;19;20527;-55
2022/04/01 09:28:59;;;;;;;0.00;0.00;;;;;;;12.00;44.57;101925.28;7356111;19;20023;-55
2022/04/01 09:31:29;;;;;;;0.00;0.00;;;;;;;12.19;44.45;101917.25;7354346;19;20022;-55
2022/04/01 09:33:55;;;;;;;0.00;0.00;;;;;;;12.44;43.83;101922.22;7359756;19;20027;-56
2022/04/01 09:36:37;;;;;;;0.00;0.00;;;;;;;12.72;44.04;101921.03;7356880;19;20011;-55
2022/04/01 09:39:07;;;;;;;0.00;0.00;;;;;;;12.94;42.89;101918.13;7353797;19;20050;-56
2022/04/01 09:41:38;;;;;;;0.00;0.00;;;;;;;13.28;42.51;101921.22;7356823;19;20031;-55
2022/04/01 09:44:17;;;;;;;0.00;0.00;;;;;;;13.59;42.61;101926.88;7354746;19;20135;-54
2022/04/01 09:46:48;;;;;;;0.00;0.00;;;;;;;13.90;41.58;101918.47;7351015;19;20010;-54
2022/04/01 09:49:28;;;;;;;0.00;0.00;;;;;;;14.24;40.65;101913.47;7353090;19;20014;-54
2022/04/01 09:51:53;;;;;;;0.00;0.00;;;;;;;14.58;39.76;101908.47;7355053;19;20018;-56
2022/04/01 09:54:18;;;;;;;0.00;0.00;;;;;;;14.93;40.17;101914.78;7357630;19;21815;-56
2022/04/01 09:56:46;;;;;;;0.00;0.00;;;;;;;15.29;39.34;101921.84;7355024;19;20015;-55
2022/04/01 09:59:14;;;;;;;0.00;0.00;;;;;;;15.66;38.50;101928.94;7354058;19;20006;-55
2022/04/01 10:01:39;;;;;;;;;;;;;;;16.16;42.10;101933.81;7349799;19;20014;-56
2022/04/01 10:04:06;;;;;;;0.00;0.00;;;;;;;16.32;36.82;101928.13;7351790;19;19929;-56
2022/04/01 10:06:34;;;;;;;0.00;0.00;;;;;;;16.62;37.11;101936.06;7351922;19;20011;-56
2022/04/01 10:09:03;;;;;;;0.00;0.00;;;;;;;16.95;35.32;101933.41;7356291;19;20026;-56
2022/04/01 10:11:29;;;;;;;0.00;0.00;;;;;;;17.22;35.60;101937.00;7355395;19;20037;-55
2022/04/01 10:14:08;;;;;;;0.00;0.00;;;;;;;17.49;35.00;101930.00;7351820;19;20044;-56
2022/04/01 10:16:35;;;;;;;0.00;0.00;;;;;;;17.64;33.97;101929.50;7365609;19;20019;-56
2022/04/01 10:19:04;;;;;;;;;;;;;;;18.12;39.34;101934.09;7364979;19;20007;-56
2022/04/01 10:21:30;;;;;;;0.00;0.00;;;;;;;18.14;33.65;101937.53;7359705;19;19918;-56
2022/04/01 10:24:04;;;;;;;0.00;0.00;;;;;;;18.40;32.99;101926.91;7365843;19;20002;-57
2022/04/01 10:26:33;;;;;;;0.00;0.00;;;;;;;18.57;32.44;101934.22;7365745;19;20002;-55
2022/04/01 10:28:59;;;;;;;0.00;0.00;;;;;;;18.68;32.35;101931.22;7360261;19;20046;-55
2022/04/01 10:31:25;;;;;;;0.08;0.08;;;;;;;18.84;31.43;101931.50;7351313;19;20078;-56
2022/04/01 10:33:51;;;;;;;0.00;0.00;;;;;;;19.00;31.17;101927.34;7351803;19;20102;-55
2022/04/01 10:36:34;;;;;;;0.00;0.00;;;;;;;19.26;33.77;101929.03;7360255;19;20088;-55
2022/04/01 10:39:04;;;;;;;0.00;0.00;;;;;;;19.32;31.21;101918.19;7363545;19;20034;-56
2022/04/01 10:41:29;;;;;;;0.00;0.00;;;;;;;19.47;31.41;101926.44;7363524;19;20010;-56
2022/04/01 10:43:55;;;;;;;0.00;0.00;;;;;;;19.63;30.77;101903.72;7357759;19;20018;-56
2022/04/01 10:46:20;;;;;;;0.00;0.00;;;;;;;19.88;30.79;101912.38;7353946;19;20015;-56
2022/04/01 10:52:17;;;;;;;0.00;0.00;;;;;;;20.69;29.09;101921.25;7156002;19;2004427;-56
2022/04/01 10:54:44;;;;;;;0.00;0.00;;;;;;;20.89;28.67;101923.84;7357297;19;20018;-55
2022/04/01 10:57:25;;;;;;;0.00;0.00;;;;;;;21.12;28.79;101924.53;7363128;19;20007;-56
2022/04/01 10:59:51;;;;;;;0.00;0.00;;;;;;;21.13;28.60;101926.25;7359295;19;20034;-56
2022/04/01 11:02:22;;;;;;;0.00;0.00;;;;;;;21.22;28.44;101915.19;7364491;19;20351;-56
2022/04/01 11:04:51;;;;;;;0.08;0.08;;;;;;;21.27;28.23;101902.56;7357047;19;20042;-55
2022/04/01 11:07:23;;;;;;;0.00;0.00;;;;;;;21.57;29.08;101915.31;7351705;19;20033;-55
2022/04/01 11:09:59;;;;;;;0.00;0.00;;;;;;;21.73;26.60;101911.81;7358158;19;20006;-56
2022/04/01 11:12:40;;;;;;;0.05;0.05;;;;;;;22.01;27.40;101916.59;7363162;19;20010;-56
2022/04/01 11:15:11;;;;;;;0.08;0.08;;;;;;;21.99;25.72;101905.16;7362405;19;20055;-55
2022/04/01 11:17:37;;;;;;;0.00;0.00;;;;;;;22.23;25.40;101899.53;7361508;19;20027;-56
2022/04/01 11:20:12;;;;;;;0.00;0.00;;;;;;;22.50;25.65;101899.88;7364509;19;20011;-56
2022/04/01 11:23:03;;;;;;;0.00;0.00;;;;;;;22.72;26.00;101897.78;7356514;19;20010;-56
2022/04/01 11:25:28;;;;;;;0.10;0.10;;;;;;;22.89;24.50;101896.88;7263418;19;2004543;-56
2022/04/01 11:27:56;;;;;;;0.00;0.00;;;;;;;23.15;24.37;101902.56;7360870;19;20176;-55
2022/04/01 11:30:27;;;;;;;0.00;0.00;;;;;;;23.13;24.12;101869.81;7359578;19;20485;-56
2022/04/01 11:32:54;;;;;;;0.00;0.00;;;;;;;23.38;24.36;101885.28;7362881;19;20078;-55
2022/04/01 11:35:25;;;;;;;0.00;0.00;;;;;;;23.76;25.89;101891.03;7356791;19;20358;-56
2022/04/01 11:37:50;;;;;;;0.00;0.00;;;;;;;23.77;23.85;101874.09;7356336;19;20025;-56
2022/04/01 11:40:19;;;;;;;0.00;0.00;;;;;;;24.10;23.21;101889.03;7349272;19;20022;-56
2022/04/01 11:43:04;;;;;;;0.00;0.00;;;;;;;24.39;26.70;101880.13;7362937;19;20507;-55
2022/04/01 11:45:31;;;;;;;0.00;0.00;;;;;;;24.33;22.43;101880.47;7356872;19;20094;-56
2022/04/01 11:47:57;;;;;;;0.03;0.03;;;;;;;24.35;21.60;101883.91;7361113;19;20059;-56